Time;durP1;ratioP1;P1;durP2;ratioP2;P2;SDS_P1;SDS_P2;PMS_P1;PMS_P2;Temp;Humidity;BMP_temperature;BMP_pressure;BME280_temperature;BME280_humidity;BME280_pressure;Samples;Min_cycle;Max_cycle;Signal;HPM_P1;HPM_P2
2023/12/04 00:01:54;;;;;;;;;;;6.70;99.90;;;;;;5016846;28;19914;-75
2023/12/04 00:04:20;;;;;;;;;;;6.70;99.90;;;;;;5016524;28;19916;-75
2023/12/04 00:06:45;;;;;;;;;;;6.80;99.90;;;;;;5016806;28;19917;-75
2023/12/04 00:09:11;;;;;;;;;;;6.80;99.90;;;;;;5016536;28;19909;-76
2023/12/04 00:11:37;;;;;;;;;;;6.80;99.90;;;;;;5016655;28;20324;-76
2023/12/04 00:14:02;;;;;;;;;;;6.70;99.90;;;;;;5016516;28;19913;-76
2023/12/04 00:16:27;;;;;;;;;;;6.70;99.90;;;;;;5016350;28;20384;-76
2023/12/04 00:18:53;;;;;;;;;;;6.70;99.90;;;;;;5016352;28;19917;-76
2023/12/04 00:21:18;;;;;;;;;;;6.60;99.90;;;;;;5015844;28;19944;-77
2023/12/04 00:23:44;;;;;;;;;;;6.60;99.90;;;;;;5011877;28;20394;-76
2023/12/04 00:26:09;;;;;;;;;;;6.60;99.90;;;;;;5016163;28;19921;-75
2023/12/04 00:28:38;;;;;;;;;;;6.60;99.90;;;;;;5003305;28;19914;-75
2023/12/04 00:31:04;;;;;;;;;;;6.50;99.90;;;;;;4997121;28;19918;-77
2023/12/04 00:33:29;;;;;;;;;;;6.50;99.90;;;;;;5000618;28;19926;-76
2023/12/04 00:35:56;;;;;;;;;;;6.50;99.90;;;;;;5016320;28;20376;-78
2023/12/04 00:38:22;;;;;;;;;;;6.50;99.90;;;;;;5015830;28;20381;-74
2023/12/04 00:40:48;;;;;;;;;;;6.50;99.90;;;;;;5015986;28;19933;-75
2023/12/04 00:43:13;;;;;;;;;;;6.50;99.90;;;;;;5016202;28;20373;-77
2023/12/04 00:45:39;;;;;;;;;;;6.50;99.90;;;;;;5016090;28;19914;-79
2023/12/04 00:48:05;;;;;;;;;;;6.50;99.90;;;;;;5016053;28;20353;-78
2023/12/04 00:50:30;;;;;;;;;;;6.50;99.90;;;;;;5008677;28;19956;-74
2023/12/04 00:52:56;;;;;;;;;;;6.50;99.90;;;;;;5000063;28;19914;-79
2023/12/04 00:55:24;;;;;;;;;;;6.50;99.90;;;;;;4996565;28;19918;-79
2023/12/04 00:57:50;;;;;;;;;;;6.50;99.90;;;;;;4996270;28;19914;-79
2023/12/04 01:00:16;;;;;;;;;;;6.50;99.90;;;;;;4996016;28;20270;-79
2023/12/04 01:02:41;;;;;;;;;;;6.50;99.90;;;;;;4998023;28;19960;-78
2023/12/04 01:05:07;;;;;;;;;;;6.50;99.90;;;;;;5015387;28;19910;-74
2023/12/04 01:07:32;;;;;;;;;;;6.50;99.90;;;;;;5015431;28;19917;-76
2023/12/04 01:09:58;;;;;;;;;;;6.50;99.90;;;;;;5015031;28;19917;-78
2023/12/04 01:12:23;;;;;;;;;;;6.50;99.90;;;;;;5015497;28;19909;-78
2023/12/04 01:14:49;;;;;;;;;;;6.50;99.90;;;;;;5014521;28;20060;-79
2023/12/04 01:17:14;;;;;;;;;;;6.50;99.90;;;;;;5015426;28;19916;-74
2023/12/04 01:19:40;;;;;;;;;;;6.50;99.90;;;;;;5015069;28;20043;-75
2023/12/04 01:22:05;;;;;;;;;;;6.50;99.90;;;;;;5013373;28;19914;-77
2023/12/04 01:24:31;;;;;;;;;;;6.50;99.90;;;;;;5014622;28;19910;-77
2023/12/04 01:26:56;;;;;;;;;;;6.60;99.90;;;;;;5015213;28;19914;-77
2023/12/04 01:29:22;;;;;;;;;;;6.60;99.90;;;;;;4995835;28;19957;-75
2023/12/04 01:31:47;;;;;;;;;;;6.60;99.90;;;;;;4995647;28;19922;-75
2023/12/04 01:34:13;;;;;;;;;;;6.70;99.90;;;;;;5010223;28;19917;-78
2023/12/04 01:36:41;;;;;;;;;;;6.70;99.90;;;;;;4995277;28;19916;-77
2023/12/04 01:39:07;;;;;;;;;;;6.70;99.90;;;;;;4995297;28;19921;-77
2023/12/04 01:41:33;;;;;;;;;;;6.80;99.90;;;;;;4995422;28;19922;-77
2023/12/04 01:43:58;;;;;;;;;;;6.80;99.90;;;;;;4995523;28;19917;-75
2023/12/04 01:46:24;;;;;;;;;;;6.80;99.90;;;;;;4995251;28;19909;-76
2023/12/04 01:48:49;;;;;;;;;;;6.90;99.90;;;;;;4996005;28;19917;-77
2023/12/04 01:51:16;;;;;;;;;;;6.90;99.90;;;;;;5004720;28;19914;-77
2023/12/04 01:53:42;;;;;;;;;;;7.00;99.90;;;;;;4995178;28;20395;-79
2023/12/04 01:56:08;;;;;;;;;;;7.00;99.90;;;;;;5003511;28;19913;-75
2023/12/04 01:58:34;;;;;;;;;;;7.00;99.90;;;;;;5014668;28;20284;-75
2023/12/04 02:01:00;;;;;;;;;;;7.00;99.90;;;;;;5014539;28;19910;-77
2023/12/04 02:03:25;;;;;;;;;;;7.10;99.90;;;;;;5029504;28;19956;-77
2023/12/04 02:05:51;;;;;;;;;;;7.10;99.90;;;;;;5014703;28;19920;-78
2023/12/04 02:08:17;;;;;;;;;;;7.10;99.90;;;;;;5014513;28;20004;-75
2023/12/04 02:10:42;;;;;;;;;;;7.10;99.90;;;;;;5014078;28;20419;-75
2023/12/04 02:13:08;;;;;;;;;;;7.10;99.90;;;;;;5001597;28;19910;-78
2023/12/04 02:15:33;;;;;;;;;;;7.10;99.90;;;;;;4994099;28;19913;-78
2023/12/04 02:17:59;;;;;;;;;;;7.10;99.90;;;;;;4998835;28;19909;-78
2023/12/04 02:20:32;;;;;;;;;;;7.10;99.90;;;;;;5014226;28;19964;-78
2023/12/04 02:22:57;;;;;;;;;;;7.00;99.90;;;;;;5013372;28;20332;-75
2023/12/04 02:25:23;;;;;;;;;;;7.00;99.90;;;;;;5014128;28;19910;-78
2023/12/04 02:27:52;;;;;;;;;;;7.10;99.90;;;;;;5006743;28;19963;-79
2023/12/04 02:30:19;;;;;;;;;;;7.10;99.90;;;;;;5014012;28;19914;-78
2023/12/04 02:32:46;;;;;;;;;;;7.00;99.90;;;;;;5014099;28;19922;-78
2023/12/04 02:35:12;;;;;;;;;;;7.00;99.90;;;;;;5002256;28;19913;-75
2023/12/04 02:37:39;;;;;;;;;;;7.10;99.90;;;;;;5012704;28;20395;-74
2023/12/04 02:40:06;;;;;;;;;;;7.00;99.90;;;;;;5013860;28;19909;-79
2023/12/04 02:42:32;;;;;;;;;;;7.00;99.90;;;;;;5013647;28;19916;-78
2023/12/04 02:44:57;;;;;;;;;;;7.10;99.90;;;;;;5014229;28;19909;-79
2023/12/04 02:47:23;;;;;;;;;;;7.10;99.90;;;;;;5013901;28;19909;-74
2023/12/04 02:49:48;;;;;;;;;;;7.10;99.90;;;;;;5007767;28;19913;-79
2023/12/04 02:52:14;;;;;;;;;;;7.10;99.90;;;;;;5002857;28;19914;-79
2023/12/04 02:54:39;;;;;;;;;;;7.10;99.90;;;;;;4994267;28;20078;-79
2023/12/04 02:57:05;;;;;;;;;;;7.10;99.90;;;;;;4994082;28;19910;-79
2023/12/04 02:59:31;;;;;;;;;;;7.10;99.90;;;;;;4994128;28;19910;-79
2023/12/04 03:01:56;;;;;;;;;;;7.10;99.90;;;;;;4994180;28;19914;-74
2023/12/04 03:04:22;;;;;;;;;;;7.20;99.90;;;;;;5004259;28;20008;-75
2023/12/04 03:06:47;;;;;;;;;;;7.20;99.90;;;;;;5013931;28;20269;-79
2023/12/04 03:09:13;;;;;;;;;;;7.20;99.90;;;;;;5013643;28;19909;-78
2023/12/04 03:11:41;;;;;;;;;;;7.20;99.90;;;;;;5013724;28;19952;-78
2023/12/04 03:14:07;;;;;;;;;;;7.20;99.90;;;;;;5013273;28;19942;-74
2023/12/04 03:16:33;;;;;;;;;;;7.20;99.90;;;;;;5013439;28;19918;-74
2023/12/04 03:18:59;;;;;;;;;;;7.20;99.90;;;;;;5013333;28;20300;-78
2023/12/04 03:21:24;;;;;;;;;;;7.30;99.90;;;;;;5012807;28;19909;-77
2023/12/04 03:23:50;;;;;;;;;;;7.30;99.90;;;;;;4993521;28;19914;-78
2023/12/04 03:26:15;;;;;;;;;;;7.30;99.90;;;;;;4995088;28;20365;-79
2023/12/04 03:28:41;;;;;;;;;;;7.30;99.90;;;;;;4997968;28;19949;-74
2023/12/04 03:31:06;;;;;;;;;;;7.30;99.90;;;;;;4998328;28;19957;-77
2023/12/04 03:33:32;;;;;;;;;;;7.30;99.90;;;;;;5017410;28;19968;-78
2023/12/04 03:36:01;;;;;;;;;;;7.30;99.90;;;;;;5017091;28;20388;-79
2023/12/04 03:38:26;;;;;;;;;;;7.30;99.90;;;;;;5032351;28;20455;-78
2023/12/04 03:40:52;;;;;;;;;;;7.30;99.90;;;;;;5032169;28;19913;-73
2023/12/04 03:43:17;;;;;;;;;;;7.40;99.90;;;;;;5032692;28;19910;-77
2023/12/04 03:45:43;;;;;;;;;;;7.40;99.90;;;;;;5017367;28;19917;-77
2023/12/04 03:48:08;;;;;;;;;;;7.40;99.90;;;;;;5017014;28;19960;-77
2023/12/04 03:50:34;;;;;;;;;;;7.40;99.90;;;;;;5016041;28;20339;-78
2023/12/04 03:52:59;;;;;;;;;;;7.40;99.90;;;;;;5032094;28;20335;-74
2023/12/04 03:55:25;;;;;;;;;;;7.40;99.90;;;;;;5016944;28;20269;-74
2023/12/04 03:57:51;;;;;;;;;;;7.50;99.90;;;;;;5017118;28;19936;-77
2023/12/04 04:00:17;;;;;;;;;;;7.60;99.90;;;;;;5016702;28;19996;-78
2023/12/04 04:02:43;;;;;;;;;;;7.60;99.90;;;;;;5015469;28;20008;-77
2023/12/04 04:05:09;;;;;;;;;;;7.80;99.90;;;;;;4998222;28;19917;-74
2023/12/04 04:07:34;;;;;;;;;;;7.90;99.90;;;;;;4997386;28;19911;-74
2023/12/04 04:10:04;;;;;;;;;;;8.00;99.90;;;;;;4997185;28;19909;-77
2023/12/04 04:12:30;;;;;;;;;;;8.10;99.90;;;;;;5004341;28;19916;-77
2023/12/04 04:14:56;;;;;;;;;;;8.20;99.90;;;;;;5016707;28;19921;-78
2023/12/04 04:17:21;;;;;;;;;;;8.20;99.90;;;;;;5015225;28;19910;-77
2023/12/04 04:19:47;;;;;;;;;;;8.20;99.90;;;;;;4997072;28;20018;-74
2023/12/04 04:22:12;;;;;;;;;;;8.20;99.90;;;;;;4999426;28;19996;-78
2023/12/04 04:24:38;;;;;;;;;;;8.20;99.90;;;;;;5032238;28;19913;-78
2023/12/04 04:27:04;;;;;;;;;;;8.20;99.90;;;;;;5015390;28;19956;-78
2023/12/04 04:29:29;;;;;;;;;;;8.20;99.90;;;;;;5011810;28;19910;-78
2023/12/04 04:31:54;;;;;;;;;;;8.20;99.90;;;;;;4998894;28;19926;-75
2023/12/04 04:34:21;;;;;;;;;;;8.20;99.90;;;;;;5016195;28;19964;-74
2023/12/04 04:36:46;;;;;;;;;;;8.20;99.90;;;;;;5007464;28;19997;-78
2023/12/04 04:39:13;;;;;;;;;;;8.30;99.90;;;;;;5030654;28;20020;-78
2023/12/04 04:41:39;;;;;;;;;;;8.20;99.90;;;;;;5015979;28;19956;-77
2023/12/04 04:44:05;;;;;;;;;;;8.20;99.90;;;;;;5031522;28;19988;-74
2023/12/04 04:46:44;;;;;;;;;;;8.20;99.90;;;;;;5014485;28;19916;-78
2023/12/04 04:49:10;;;;;;;;;;;8.30;99.90;;;;;;5029646;28;19914;-77
2023/12/04 04:51:35;;;;;;;;;;;8.30;99.90;;;;;;5020225;28;20372;-77
2023/12/04 04:54:01;;;;;;;;;;;8.30;99.90;;;;;;5031340;28;19909;-77
2023/12/04 04:56:37;;;;;;;;;;;8.30;99.90;;;;;;5030764;28;19968;-77
2023/12/04 04:59:03;;;;;;;;;;;8.30;99.90;;;;;;5031012;28;19920;-75
2023/12/04 05:01:41;;;;;;;;;;;8.30;99.90;;;;;;5030742;28;19936;-76
2023/12/04 05:04:06;;;;;;;;;;;8.30;99.90;;;;;;5015468;28;19910;-78
2023/12/04 05:06:32;;;;;;;;;;;8.30;99.90;;;;;;5015430;28;20622;-76
2023/12/04 05:08:57;;;;;;;;;;;8.30;99.90;;;;;;5015682;28;19916;-76
2023/12/04 05:11:23;;;;;;;;;;;8.20;99.90;;;;;;5015331;28;19932;-75
2023/12/04 05:13:49;;;;;;;;;;;8.20;99.90;;;;;;5015427;28;19910;-75
2023/12/04 05:16:14;;;;;;;;;;;8.20;99.90;;;;;;5015199;28;19956;-77
2023/12/04 05:18:40;;;;;;;;;;;8.10;99.90;;;;;;5015500;28;20086;-77
2023/12/04 05:21:09;;;;;;;;;;;8.10;99.90;;;;;;5015412;28;20419;-78
2023/12/04 05:23:34;;;;;;;;;;;8.00;99.90;;;;;;5014519;28;20013;-78
2023/12/04 05:26:00;;;;;;;;;;;8.00;99.90;;;;;;5015381;28;20352;-75
2023/12/04 05:28:25;;;;;;;;;;;8.00;99.90;;;;;;5002561;28;20020;-78
2023/12/04 05:30:51;;;;;;;;;;;8.00;99.90;;;;;;4995625;28;19964;-77
2023/12/04 05:33:16;;;;;;;;;;;8.00;99.90;;;;;;5009554;28;19960;-77
2023/12/04 05:35:42;;;;;;;;;;;8.00;99.90;;;;;;5014764;28;19980;-75
2023/12/04 05:38:08;;;;;;;;;;;8.10;99.90;;;;;;5007068;28;20296;-76
2023/12/04 05:40:33;;;;;;;;;;;8.10;99.90;;;;;;5014747;28;19910;-75
2023/12/04 05:42:59;;;;;;;;;;;8.10;99.90;;;;;;5029458;28;19909;-80
2023/12/04 05:45:24;;;;;;;;;;;8.10;99.90;;;;;;5007322;28;19920;-78
2023/12/04 05:47:50;;;;;;;;;;;8.10;99.90;;;;;;5009738;28;19914;-77
2023/12/04 05:50:15;;;;;;;;;;;8.10;99.90;;;;;;5006250;28;19914;-75
2023/12/04 05:52:41;;;;;;;;;;;8.10;99.90;;;;;;5008475;28;19917;-75
2023/12/04 05:55:07;;;;;;;;;;;8.10;99.90;;;;;;5013469;28;19913;-80
2023/12/04 05:57:32;;;;;;;;;;;8.00;99.90;;;;;;5014562;28;19913;-80
2023/12/04 05:59:58;;;;;;;;;;;8.00;99.90;;;;;;5014578;28;19914;-80
2023/12/04 06:02:24;;;;;;;;;;;8.00;99.90;;;;;;5008960;28;19914;-75
2023/12/04 06:04:49;;;;;;;;;;;7.90;99.90;;;;;;5009438;28;19909;-76
2023/12/04 06:07:15;;;;;;;;;;;7.90;99.90;;;;;;5014586;28;20292;-80
2023/12/04 06:09:40;;;;;;;;;;;7.80;99.90;;;;;;5029305;28;19917;-79
2023/12/04 06:12:13;;;;;;;;;;;7.80;99.90;;;;;;5110990;27;19934;-80
2023/12/04 06:14:39;;;;;;;;;;;7.70;99.90;;;;;;5101803;28;20434;-79
2023/12/04 06:17:06;;;;;;;;;;;7.70;99.90;;;;;;5109644;28;19912;-80
2023/12/04 06:19:32;;;;;;;;;;;7.60;99.90;;;;;;5093362;28;19934;-75
2023/12/04 06:21:57;;;;;;;;;;;7.60;99.90;;;;;;5092962;28;19912;-75
2023/12/04 06:24:23;;;;;;;;;;;7.60;99.90;;;;;;5110939;28;20017;-79
2023/12/04 06:26:50;;;;;;;;;;;7.60;99.90;;;;;;5110632;28;20370;-75
2023/12/04 06:29:15;;;;;;;;;;;7.70;99.90;;;;;;5089774;28;19919;-80
2023/12/04 06:31:41;;;;;;;;;;;7.80;99.90;;;;;;5095686;28;19912;-76
2023/12/04 06:34:07;;;;;;;;;;;7.80;99.90;;;;;;5104007;28;19939;-74
2023/12/04 06:36:36;;;;;;;;;;;7.90;99.90;;;;;;5083008;28;20083;-74
2023/12/04 06:39:04;;;;;;;;;;;8.00;99.90;;;;;;5083022;28;19916;-75
2023/12/04 06:41:29;;;;;;;;;;;8.00;99.90;;;;;;5089538;28;20424;-79
2023/12/04 06:43:55;;;;;;;;;;;8.00;99.90;;;;;;5100098;28;19992;-75
2023/12/04 06:46:20;;;;;;;;;;;8.00;99.90;;;;;;5091510;28;20287;-74
2023/12/04 06:48:48;;;;;;;;;;;8.10;99.90;;;;;;5089104;28;20402;-74
2023/12/04 06:51:13;;;;;;;;;;;8.30;99.90;;;;;;5096089;28;19923;-75
2023/12/04 06:53:39;;;;;;;;;;;8.70;99.90;;;;;;5099840;28;19913;-79
2023/12/04 06:56:04;;;;;;;;;;;8.60;99.90;;;;;;5093308;28;19916;-81
2023/12/04 06:58:30;;;;;;;;;;;8.50;99.90;;;;;;5094035;28;19916;-80
2023/12/04 07:00:55;;;;;;;;;;;8.50;99.90;;;;;;5091905;28;19923;-75
2023/12/04 07:03:21;;;;;;;;;;;8.50;99.90;;;;;;5097591;28;20364;-75
2023/12/04 07:05:46;;;;;;;;;;;8.40;99.90;;;;;;5089777;28;19919;-75
2023/12/04 07:08:12;;;;;;;;;;;8.30;99.90;;;;;;5093366;28;20015;-79
2023/12/04 07:10:37;;;;;;;;;;;8.30;99.90;;;;;;5096137;28;19924;-79
2023/12/04 07:13:03;;;;;;;;;;;8.30;99.90;;;;;;5091919;28;19912;-75
2023/12/04 07:15:28;;;;;;;;;;;8.40;99.90;;;;;;5084928;28;20379;-79
2023/12/04 07:17:54;;;;;;;;;;;8.50;99.90;;;;;;5089747;28;19958;-75
2023/12/04 07:20:19;;;;;;;;;;;8.60;99.90;;;;;;5088764;28;19939;-79
2023/12/04 07:22:45;;;;;;;;;;;8.80;99.90;;;;;;5080255;28;19948;-79
2023/12/04 07:25:10;;;;;;;;;;;9.00;99.90;;;;;;5073679;28;19913;-75
2023/12/04 07:27:36;;;;;;;;;;;9.40;99.90;;;;;;5083504;28;19915;-79
2023/12/04 07:30:03;;;;;;;;;;;9.70;99.90;;;;;;5088941;28;20007;-75
2023/12/04 07:32:29;;;;;;;;;;;9.90;99.90;;;;;;5073416;28;19917;-74
2023/12/04 07:34:54;;;;;;;;;;;9.80;99.90;;;;;;5073335;28;19912;-80
2023/12/04 07:37:20;;;;;;;;;;;9.60;99.90;;;;;;5084169;28;19912;-76
2023/12/04 07:39:46;;;;;;;;;;;9.40;99.90;;;;;;5080570;28;19920;-80
2023/12/04 07:42:11;;;;;;;;;;;9.70;99.90;;;;;;5082736;28;19919;-74
2023/12/04 07:44:37;;;;;;;;;;;9.80;99.90;;;;;;5077746;28;19992;-76
2023/12/04 07:47:03;;;;;;;;;;;10.00;99.90;;;;;;5075585;28;19912;-80
2023/12/04 07:49:28;;;;;;;;;;;10.20;99.90;;;;;;5077152;28;20345;-77
2023/12/04 07:51:54;;;;;;;;;;;10.30;99.90;;;;;;5074768;28;19928;-75
2023/12/04 07:54:19;;;;;;;;;;;10.30;99.90;;;;;;5082724;28;19920;-75
2023/12/04 07:56:45;;;;;;;;;;;9.90;99.90;;;;;;5075041;28;19916;-74
2023/12/04 07:59:10;;;;;;;;;;;9.90;99.90;;;;;;5071291;28;20367;-79
2023/12/04 08:01:36;;;;;;;;;;;10.10;99.90;;;;;;5074629;28;19913;-79
2023/12/04 08:04:02;;;;;;;;;;;10.00;99.90;;;;;;5076178;28;19917;-74
2023/12/04 08:06:28;;;;;;;;;;;10.00;99.90;;;;;;5075059;28;19920;-75
2023/12/04 08:08:54;;;;;;;;;;;9.90;99.90;;;;;;5080542;28;20402;-79
2023/12/04 08:11:19;;;;;;;;;;;9.80;99.90;;;;;;5074036;28;20417;-75
2023/12/04 08:13:45;;;;;;;;;;;9.90;99.90;;;;;;5071825;28;19987;-78
2023/12/04 08:16:15;;;;;;;;;;;9.90;99.90;;;;;;5071635;28;20049;-79
2023/12/04 08:18:40;;;;;;;;;;;10.00;99.90;;;;;;5075085;28;19924;-75
2023/12/04 08:21:06;;;;;;;;;;;10.10;99.90;;;;;;5072408;28;20295;-75
2023/12/04 08:23:31;;;;;;;;;;;10.40;99.90;;;;;;5076771;28;20299;-80
2023/12/04 08:25:57;;;;;;;;;;;11.00;99.90;;;;;;5072146;28;19956;-79
2023/12/04 08:28:23;;;;;;;;;;;11.50;99.90;;;;;;5086684;28;19912;-79
2023/12/04 08:30:48;;;;;;;;;;;11.60;99.90;;;;;;5072325;28;19920;-74
2023/12/04 08:33:14;;;;;;;;;;;11.70;99.90;;;;;;5077740;28;19955;-80
2023/12/04 08:35:39;;;;;;;;;;;11.80;99.90;;;;;;5072440;28;19916;-74
2023/12/04 08:38:05;;;;;;;;;;;11.90;99.90;;;;;;5071813;28;20008;-80
2023/12/04 08:40:30;;;;;;;;;;;11.90;99.90;;;;;;5072302;28;19912;-78
2023/12/04 08:42:56;;;;;;;;;;;11.90;99.90;;;;;;5071602;28;19912;-75
2023/12/04 08:45:21;;;;;;;;;;;11.90;99.90;;;;;;5072012;28;19913;-79
2023/12/04 08:47:47;;;;;;;;;;;12.00;99.90;;;;;;5070969;28;19920;-78
2023/12/04 08:50:12;;;;;;;;;;;12.20;99.90;;;;;;5068610;28;19967;-75
2023/12/04 08:52:41;;;;;;;;;;;12.30;99.90;;;;;;5070805;28;19916;-79
2023/12/04 08:55:07;;;;;;;;;;;12.40;99.90;;;;;;5071460;28;19962;-75
2023/12/04 08:57:33;;;;;;;;;;;12.40;99.90;;;;;;5085677;28;20321;-79
2023/12/04 08:59:58;;;;;;;;;;;12.50;99.90;;;;;;5069728;28;20296;-80
2023/12/04 09:02:24;;;;;;;;;;;12.40;99.90;;;;;;5076091;28;19919;-74
2023/12/04 09:04:49;;;;;;;;;;;12.30;99.90;;;;;;5072486;28;19916;-79
2023/12/04 09:07:15;;;;;;;;;;;12.30;99.90;;;;;;5077231;28;20398;-80
2023/12/04 09:09:41;;;;;;;;;;;12.20;99.90;;;;;;5077576;28;20326;-77
2023/12/04 09:12:07;;;;;;;;;;;12.20;99.90;;;;;;5071490;28;19928;-75
2023/12/04 09:14:33;;;;;;;;;;;12.20;99.90;;;;;;5085540;28;20025;-74
2023/12/04 09:16:58;;;;;;;;;;;12.10;99.90;;;;;;5071080;28;20391;-74
2023/12/04 09:19:24;;;;;;;;;;;12.20;99.90;;;;;;5074685;28;19956;-80
2023/12/04 09:21:49;;;;;;;;;;;12.30;99.90;;;;;;5073242;28;19912;-75
2023/12/04 09:24:15;;;;;;;;;;;12.30;99.90;;;;;;5080369;28;20394;-75
2023/12/04 09:26:43;;;;;;;;;;;12.40;99.90;;;;;;5070748;28;20368;-79
2023/12/04 09:29:10;;;;;;;;;;;12.50;99.90;;;;;;5079000;28;20041;-74
2023/12/04 09:31:36;;;;;;;;;;;12.60;99.90;;;;;;5071381;28;19921;-80
2023/12/04 09:34:01;;;;;;;;;;;13.00;99.90;;;;;;5070331;28;19916;-79
2023/12/04 09:36:27;;;;;;;;;;;13.30;99.90;;;;;;5074732;28;19916;-75
2023/12/04 09:38:52;;;;;;;;;;;13.30;99.90;;;;;;5073297;28;19963;-75
2023/12/04 09:41:18;;;;;;;;;;;13.00;99.90;;;;;;5081648;28;20270;-75
2023/12/04 09:43:44;;;;;;;;;;;12.70;99.90;;;;;;5072999;28;19916;-80
2023/12/04 09:46:10;;;;;;;;;;;12.30;99.90;;;;;;5071502;28;19962;-80
2023/12/04 09:48:37;;;;;;;;;;;12.00;99.90;;;;;;5080122;28;20705;-75
2023/12/04 09:51:03;;;;;;;;;;;12.10;99.90;;;;;;5072931;28;19920;-80
2023/12/04 09:53:29;;;;;;;;;;;12.30;99.90;;;;;;5079866;28;19912;-75
2023/12/04 09:55:57;;;;;;;;;;;12.70;99.90;;;;;;5083965;28;19981;-80
2023/12/04 09:58:24;;;;;;;;;;;12.90;99.90;;;;;;5088432;28;20359;-80
2023/12/04 10:00:50;;;;;;;;;;;12.80;99.90;;;;;;5081189;28;20302;-80
2023/12/04 10:03:16;;;;;;;;;;;12.70;99.90;;;;;;5080350;28;19923;-74
2023/12/04 10:05:47;;;;;;;;;;;13.00;99.90;;;;;;5070522;28;19923;-75
2023/12/04 10:08:12;;;;;;;;;;;13.30;99.90;;;;;;5086383;28;19947;-75
2023/12/04 10:10:38;;;;;;;;;;;13.30;99.90;;;;;;5072254;28;20395;-82
2023/12/04 10:13:04;;;;;;;;;;;13.10;99.90;;;;;;5070863;28;19966;-81
2023/12/04 10:15:29;;;;;;;;;;;12.80;99.90;;;;;;5070607;28;20303;-76
2023/12/04 10:17:55;;;;;;;;;;;12.60;99.90;;;;;;5070438;28;19920;-80
2023/12/04 10:20:21;;;;;;;;;;;12.50;99.90;;;;;;5075543;28;20295;-76
2023/12/04 10:22:54;;;;;;;;;;;12.40;99.90;;;;;;5081120;28;19971;-76
2023/12/04 10:25:20;;;;;;;;;;;12.40;99.90;;;;;;5077008;28;19912;-81
2023/12/04 10:27:46;;;;;;;;;;;12.50;99.90;;;;;;5078227;28;19921;-75
2023/12/04 10:30:24;;;;;;;;;;;12.60;99.90;;;;;;5076511;28;19916;-81
2023/12/04 10:32:53;;;;;;;;;;;12.70;99.90;;;;;;5075323;28;19917;-76
2023/12/04 10:35:19;;;;;;;;;;;12.90;99.90;;;;;;5079436;28;19912;-80
2023/12/04 10:37:45;;;;;;;;;;;13.00;99.90;;;;;;5074146;28;19943;-80
2023/12/04 10:40:10;;;;;;;;;;;13.00;99.90;;;;;;5076519;28;19966;-75
2023/12/04 10:42:36;;;;;;;;;;;13.00;99.90;;;;;;5077773;28;20035;-81
2023/12/04 10:45:01;;;;;;;;;;;13.20;99.90;;;;;;5078948;28;19916;-75
2023/12/04 10:47:29;;;;;;;;;;;13.40;99.90;;;;;;5078768;28;20386;-75
2023/12/04 10:49:55;;;;;;;;;;;13.60;99.90;;;;;;5079746;28;19912;-81
2023/12/04 10:52:21;;;;;;;;;;;13.80;99.90;;;;;;5071443;28;20371;-75
2023/12/04 10:54:47;;;;;;;;;;;14.10;99.90;;;;;;5070556;28;19913;-81
2023/12/04 10:57:15;;;;;;;;;;;14.20;99.90;;;;;;5077116;28;19962;-75
2023/12/04 10:59:41;;;;;;;;;;;14.30;99.90;;;;;;5082257;28;19916;-81
2023/12/04 11:02:11;;;;;;;;;;;14.60;99.90;;;;;;5074950;28;19916;-81
2023/12/04 11:04:38;;;;;;;;;;;14.60;99.90;;;;;;5079520;28;19962;-81
2023/12/04 11:07:05;;;;;;;;;;;14.50;99.90;;;;;;5075979;28;19928;-75
2023/12/04 11:09:33;;;;;;;;;;;14.40;99.90;;;;;;5074595;28;19912;-75
2023/12/04 11:12:02;;;;;;;;;;;14.20;99.90;;;;;;5074237;28;19931;-75
2023/12/04 11:14:31;;;;;;;;;;;14.30;99.90;;;;;;5073974;28;19917;-81
2023/12/04 11:17:07;;;;;;;;;;;14.40;99.90;;;;;;5073900;28;20427;-80
2023/12/04 11:19:40;;;;;;;;;;;14.30;99.90;;;;;;5074516;28;20367;-74
2023/12/04 11:22:07;;;;;;;;;;;14.00;99.90;;;;;;5077799;28;20003;-75
2023/12/04 11:24:32;;;;;;;;;;;13.80;99.90;;;;;;5075734;28;19917;-75
2023/12/04 11:26:58;;;;;;;;;;;13.80;99.90;;;;;;5081427;28;19923;-81
2023/12/04 11:29:24;;;;;;;;;;;13.80;99.90;;;;;;5074955;28;19923;-80
2023/12/04 11:31:50;;;;;;;;;;;13.60;99.90;;;;;;5086314;28;20010;-75
2023/12/04 11:34:15;;;;;;;;;;;13.10;99.90;;;;;;5075681;28;20004;-75
2023/12/04 11:36:41;;;;;;;;;;;13.00;99.90;;;;;;5074057;28;19923;-75
2023/12/04 11:39:12;;;;;;;;;;;13.00;99.90;;;;;;5087642;28;19920;-75
2023/12/04 11:41:40;;;;;;;;;;;12.80;99.90;;;;;;5071713;28;19958;-80
2023/12/04 11:44:11;;;;;;;;;;;12.90;99.90;;;;;;5088865;28;19990;-81
2023/12/04 11:46:37;;;;;;;;;;;13.30;99.90;;;;;;5074558;28;19916;-81
2023/12/04 11:49:21;;;;;;;;;;;13.30;99.90;;;;;;5081090;28;19965;-81
2023/12/04 11:51:48;;;;;;;;;;;13.10;99.90;;;;;;5074348;28;20462;-80
2023/12/04 11:54:15;;;;;;;;;;;12.80;99.90;;;;;;5072539;28;19916;-81
2023/12/04 11:56:40;;;;;;;;;;;12.70;99.90;;;;;;5066011;28;19909;-81
2023/12/04 11:59:07;;;;;;;;;;;12.70;99.90;;;;;;5073352;28;19918;-74
2023/12/04 12:01:39;;;;;;;;;;;12.70;99.90;;;;;;5072445;28;20371;-78
2023/12/04 12:04:07;;;;;;;;;;;12.60;99.90;;;;;;5072142;28;19917;-74
2023/12/04 12:06:33;;;;;;;;;;;12.50;99.90;;;;;;5070488;28;19908;-80
2023/12/04 12:08:59;;;;;;;;;;;12.40;99.90;;;;;;5073842;28;19913;-80
2023/12/04 12:11:26;;;;;;;;;;;12.40;99.90;;;;;;5074099;28;19930;-75
2023/12/04 12:13:54;;;;;;;;;;;12.40;99.90;;;;;;5073845;28;19963;-74
2023/12/04 12:16:20;;;;;;;;;;;12.50;99.90;;;;;;5074163;28;20030;-74
2023/12/04 12:18:46;;;;;;;;;;;12.70;99.90;;;;;;5072451;28;19917;-79
2023/12/04 12:21:12;;;;;;;;;;;13.20;99.90;;;;;;5073351;28;20312;-79
2023/12/04 12:23:37;;;;;;;;;;;13.40;99.90;;;;;;5071175;28;20366;-78
2023/12/04 12:26:03;;;;;;;;;;;13.50;99.90;;;;;;5074225;28;19958;-74
2023/12/04 12:28:29;;;;;;;;;;;13.20;99.90;;;;;;5072351;28;19971;-74
2023/12/04 12:30:55;;;;;;;;;;;13.10;99.90;;;;;;5080885;28;19975;-74
2023/12/04 12:33:20;;;;;;;;;;;13.10;99.90;;;;;;5077988;28;19929;-80
2023/12/04 12:35:47;;;;;;;;;;;13.30;99.90;;;;;;5072429;28;19920;-78
2023/12/04 12:38:12;;;;;;;;;;;13.50;99.90;;;;;;5074025;28;19920;-77
2023/12/04 12:40:38;;;;;;;;;;;13.70;99.90;;;;;;5085561;28;19923;-77
2023/12/04 12:43:08;;;;;;;;;;;13.70;99.90;;;;;;5076795;28;19966;-78
2023/12/04 12:45:40;;;;;;;;;;;13.90;99.90;;;;;;5081398;28;19939;-78
2023/12/04 12:48:05;;;;;;;;;;;13.90;99.90;;;;;;5072327;28;19916;-78
2023/12/04 12:50:31;;;;;;;;;;;14.20;99.90;;;;;;5071539;28;19917;-77
2023/12/04 12:52:57;;;;;;;;;;;14.20;99.90;;;;;;5074586;28;19922;-77
2023/12/04 12:55:27;;;;;;;;;;;14.20;99.90;;;;;;5075652;28;19958;-73
2023/12/04 12:57:55;;;;;;;;;;;14.20;99.90;;;;;;5076022;28;19920;-76
2023/12/04 13:00:20;;;;;;;;;;;14.30;99.90;;;;;;5071111;28;19924;-77
2023/12/04 13:02:46;;;;;;;;;;;14.30;99.90;;;;;;5071976;28;20330;-75
2023/12/04 13:05:11;;;;;;;;;;;14.30;99.90;;;;;;5085950;28;19916;-78
2023/12/04 13:07:37;;;;;;;;;;;14.30;99.90;;;;;;5075030;28;19912;-75
2023/12/04 13:10:04;;;;;;;;;;;14.20;99.90;;;;;;5078095;28;19917;-75
2023/12/04 13:12:30;;;;;;;;;;;14.40;99.90;;;;;;5071924;28;19947;-78
2023/12/04 13:14:56;;;;;;;;;;;14.50;99.90;;;;;;5072146;28;19952;-79
2023/12/04 13:17:21;;;;;;;;;;;14.50;99.90;;;;;;5072178;28;19912;-74
2023/12/04 13:19:47;;;;;;;;;;;14.30;99.90;;;;;;5075598;28;20007;-78
2023/12/04 13:22:12;;;;;;;;;;;14.00;99.90;;;;;;5080694;28;19917;-75
2023/12/04 13:24:38;;;;;;;;;;;14.10;99.90;;;;;;5083876;28;19912;-82
2023/12/04 13:27:04;;;;;;;;;;;13.60;99.90;;;;;;5087520;28;19916;-78
2023/12/04 13:29:29;;;;;;;;;;;13.10;99.90;;;;;;5085681;28;19912;-79
2023/12/04 13:31:55;;;;;;;;;;;12.60;99.90;;;;;;5089858;28;19912;-75
2023/12/04 13:34:21;;;;;;;;;;;12.30;99.90;;;;;;5090356;28;20446;-74
2023/12/04 13:36:46;;;;;;;;;;;12.30;99.90;;;;;;5081921;28;19912;-75
2023/12/04 13:39:16;;;;;;;;;;;12.20;99.90;;;;;;5076669;28;19928;-78
2023/12/04 13:44:27;;;;;;;;;;;12.00;99.90;;;;;;5076321;28;19927;-75
2023/12/04 13:46:53;;;;;;;;;;;12.20;99.90;;;;;;5072509;28;19916;-75
2023/12/04 13:49:19;;;;;;;;;;;12.60;99.90;;;;;;5077519;28;19919;-76
2023/12/04 13:51:45;;;;;;;;;;;13.20;99.90;;;;;;5071817;28;19916;-76
2023/12/04 13:54:20;;;;;;;;;;;13.30;99.90;;;;;;5104021;27;19923;-75
2023/12/04 13:56:56;;;;;;;;;;;13.40;99.90;;;;;;5076455;28;20314;-74
2023/12/04 13:59:22;;;;;;;;;;;13.60;99.90;;;;;;5056531;28;19933;-73
2023/12/04 14:01:52;;;;;;;;;;;13.60;99.90;;;;;;5053680;28;19917;-73
2023/12/04 14:04:18;;;;;;;;;;;13.40;99.90;;;;;;5044733;28;20370;-75
2023/12/04 14:06:44;;;;;;;;;;;13.10;99.90;;;;;;5049097;28;19916;-75
2023/12/04 14:09:14;;;;;;;;;;;13.00;99.90;;;;;;5047154;28;20013;-73
2023/12/04 14:11:40;;;;;;;;;;;12.60;99.90;;;;;;5057105;28;19928;-73
2023/12/04 14:14:05;;;;;;;;;;;12.30;99.90;;;;;;5042706;28;20019;-74
2023/12/04 14:16:31;;;;;;;;;;;12.10;99.90;;;;;;5044548;28;19917;-74
2023/12/04 14:18:57;;;;;;;;;;;12.00;99.90;;;;;;5058060;28;19920;-74
2023/12/04 14:21:22;;;;;;;;;;;12.00;99.90;;;;;;5047908;28;19988;-72